sensor_id;sensor_type;location;lat;lon;timestamp;temperature;humidity
16287;DHT22;8251;53.568;10.018;2022-11-04T00:01:36;13.90;81.50
16287;DHT22;8251;53.568;10.018;2022-11-04T00:04:08;13.90;82.00
16287;DHT22;8251;53.568;10.018;2022-11-04T00:06:36;13.90;82.30
16287;DHT22;8251;53.568;10.018;2022-11-04T00:09:09;13.90;82.50
16287;DHT22;8251;53.568;10.018;2022-11-04T00:11:42;13.90;82.60
16287;DHT22;8251;53.568;10.018;2022-11-04T00:14:31;13.90;82.80
16287;DHT22;8251;53.568;10.018;2022-11-04T00:17:03;13.90;82.90
16287;DHT22;8251;53.568;10.018;2022-11-04T00:19:50;13.80;83.20
16287;DHT22;8251;53.568;10.018;2022-11-04T00:22:37;13.80;83.30
16287;DHT22;8251;53.568;10.018;2022-11-04T00:25:28;13.80;83.60
16287;DHT22;8251;53.568;10.018;2022-11-04T00:28:14;13.90;83.70
16287;DHT22;8251;53.568;10.018;2022-11-04T00:31:02;13.80;83.80
16287;DHT22;8251;53.568;10.018;2022-11-04T00:33:46;13.80;83.90
16287;DHT22;8251;53.568;10.018;2022-11-04T00:36:13;13.80;84.00
16287;DHT22;8251;53.568;10.018;2022-11-04T00:38:43;13.90;84.20
16287;DHT22;8251;53.568;10.018;2022-11-04T00:41:15;13.90;84.00
16287;DHT22;8251;53.568;10.018;2022-11-04T00:43:51;13.90;84.00
16287;DHT22;8251;53.568;10.018;2022-11-04T00:46:18;13.80;84.10
16287;DHT22;8251;53.568;10.018;2022-11-04T00:48:46;13.90;84.20
16287;DHT22;8251;53.568;10.018;2022-11-04T00:51:14;13.90;84.20
16287;DHT22;8251;53.568;10.018;2022-11-04T00:53:45;13.90;84.20
16287;DHT22;8251;53.568;10.018;2022-11-04T00:56:16;13.80;84.30
16287;DHT22;8251;53.568;10.018;2022-11-04T00:58:45;13.80;84.40
16287;DHT22;8251;53.568;10.018;2022-11-04T01:01:15;13.80;84.40
16287;DHT22;8251;53.568;10.018;2022-11-04T01:03:46;13.80;84.60
16287;DHT22;8251;53.568;10.018;2022-11-04T01:06:15;13.80;84.60
16287;DHT22;8251;53.568;10.018;2022-11-04T01:08:46;13.80;84.60
16287;DHT22;8251;53.568;10.018;2022-11-04T01:11:15;13.80;84.60
16287;DHT22;8251;53.568;10.018;2022-11-04T01:13:44;13.90;84.60
16287;DHT22;8251;53.568;10.018;2022-11-04T01:16:11;13.90;84.70
16287;DHT22;8251;53.568;10.018;2022-11-04T01:18:39;13.90;84.90
16287;DHT22;8251;53.568;10.018;2022-11-04T01:21:09;13.90;84.80
16287;DHT22;8251;53.568;10.018;2022-11-04T01:23:41;13.90;85.00
16287;DHT22;8251;53.568;10.018;2022-11-04T01:26:17;13.90;85.20
16287;DHT22;8251;53.568;10.018;2022-11-04T01:28:47;13.90;84.80
16287;DHT22;8251;53.568;10.018;2022-11-04T01:31:17;13.90;85.10
16287;DHT22;8251;53.568;10.018;2022-11-04T01:33:47;14.00;85.20
16287;DHT22;8251;53.568;10.018;2022-11-04T01:36:18;13.90;85.20
16287;DHT22;8251;53.568;10.018;2022-11-04T01:38:48;14.00;85.20
16287;DHT22;8251;53.568;10.018;2022-11-04T01:41:25;14.00;85.20
16287;DHT22;8251;53.568;10.018;2022-11-04T01:44:42;14.00;85.00
16287;DHT22;8251;53.568;10.018;2022-11-04T01:46:53;14.10;85.40
16287;DHT22;8251;53.568;10.018;2022-11-04T01:49:25;14.10;85.30
16287;DHT22;8251;53.568;10.018;2022-11-04T01:51:59;14.10;85.20
16287;DHT22;8251;53.568;10.018;2022-11-04T01:54:31;14.10;85.30
16287;DHT22;8251;53.568;10.018;2022-11-04T01:57:06;14.10;85.30
16287;DHT22;8251;53.568;10.018;2022-11-04T01:59:36;14.20;85.20
16287;DHT22;8251;53.568;10.018;2022-11-04T02:02:08;14.20;85.20
16287;DHT22;8251;53.568;10.018;2022-11-04T02:04:38;14.20;85.20
16287;DHT22;8251;53.568;10.018;2022-11-04T02:07:10;14.20;85.10
16287;DHT22;8251;53.568;10.018;2022-11-04T02:09:50;14.20;84.90
16287;DHT22;8251;53.568;10.018;2022-11-04T02:12:21;14.20;84.80
16287;DHT22;8251;53.568;10.018;2022-11-04T02:15:08;14.20;84.90
16287;DHT22;8251;53.568;10.018;2022-11-04T02:18:02;14.20;85.10
16287;DHT22;8251;53.568;10.018;2022-11-04T02:21:17;14.20;85.10
16287;DHT22;8251;53.568;10.018;2022-11-04T02:24:19;14.30;85.20
16287;DHT22;8251;53.568;10.018;2022-11-04T02:27:13;14.20;85.20
16287;DHT22;8251;53.568;10.018;2022-11-04T02:30:10;14.30;85.50
16287;DHT22;8251;53.568;10.018;2022-11-04T02:33:02;14.20;85.50
16287;DHT22;8251;53.568;10.018;2022-11-04T02:35:41;14.30;85.70
16287;DHT22;8251;53.568;10.018;2022-11-04T02:41:37;14.40;85.80
16287;DHT22;8251;53.568;10.018;2022-11-04T02:44:18;14.40;85.90
16287;DHT22;8251;53.568;10.018;2022-11-04T02:46:50;14.40;85.90
16287;DHT22;8251;53.568;10.018;2022-11-04T02:49:25;14.40;86.10
16287;DHT22;8251;53.568;10.018;2022-11-04T02:51:59;14.40;86.20
16287;DHT22;8251;53.568;10.018;2022-11-04T02:54:37;14.50;86.50
16287;DHT22;8251;53.568;10.018;2022-11-04T02:57:14;14.50;86.60
16287;DHT22;8251;53.568;10.018;2022-11-04T02:59:48;14.50;86.70
16287;DHT22;8251;53.568;10.018;2022-11-04T03:02:28;14.50;87.00
16287;DHT22;8251;53.568;10.018;2022-11-04T03:05:05;14.60;87.20
16287;DHT22;8251;53.568;10.018;2022-11-04T03:07:37;14.50;87.20
16287;DHT22;8251;53.568;10.018;2022-11-04T03:10:14;14.40;87.20
16287;DHT22;8251;53.568;10.018;2022-11-04T03:12:47;14.50;87.50
16287;DHT22;8251;53.568;10.018;2022-11-04T03:15:19;14.40;87.80
16287;DHT22;8251;53.568;10.018;2022-11-04T03:18:01;14.40;88.00
16287;DHT22;8251;53.568;10.018;2022-11-04T03:20:30;14.50;87.90
16287;DHT22;8251;53.568;10.018;2022-11-04T03:23:00;14.50;88.20
16287;DHT22;8251;53.568;10.018;2022-11-04T03:25:32;14.50;88.40
16287;DHT22;8251;53.568;10.018;2022-11-04T03:28:10;14.50;88.40
16287;DHT22;8251;53.568;10.018;2022-11-04T03:30:44;14.50;88.60
16287;DHT22;8251;53.568;10.018;2022-11-04T03:33:20;14.50;88.80
16287;DHT22;8251;53.568;10.018;2022-11-04T03:35:51;14.50;88.90
16287;DHT22;8251;53.568;10.018;2022-11-04T03:38:20;14.50;89.30
16287;DHT22;8251;53.568;10.018;2022-11-04T03:40:49;14.50;89.40
16287;DHT22;8251;53.568;10.018;2022-11-04T03:43:26;14.50;89.40
16287;DHT22;8251;53.568;10.018;2022-11-04T03:45:54;14.50;89.50
16287;DHT22;8251;53.568;10.018;2022-11-04T03:48:26;14.50;89.60
16287;DHT22;8251;53.568;10.018;2022-11-04T03:50:54;14.60;89.80
16287;DHT22;8251;53.568;10.018;2022-11-04T03:53:24;14.60;89.90
16287;DHT22;8251;53.568;10.018;2022-11-04T03:56:13;14.60;90.00
16287;DHT22;8251;53.568;10.018;2022-11-04T03:58:50;14.60;90.00
16287;DHT22;8251;53.568;10.018;2022-11-04T04:01:31;14.60;90.00
16287;DHT22;8251;53.568;10.018;2022-11-04T04:04:11;14.60;90.00
16287;DHT22;8251;53.568;10.018;2022-11-04T04:06:53;14.60;90.10
16287;DHT22;8251;53.568;10.018;2022-11-04T04:09:33;14.60;90.00
16287;DHT22;8251;53.568;10.018;2022-11-04T04:12:06;14.50;90.10
16287;DHT22;8251;53.568;10.018;2022-11-04T04:14:40;14.60;90.20
16287;DHT22;8251;53.568;10.018;2022-11-04T04:17:15;14.50;90.20
16287;DHT22;8251;53.568;10.018;2022-11-04T04:19:56;14.50;90.20
16287;DHT22;8251;53.568;10.018;2022-11-04T04:22:28;14.50;90.20
16287;DHT22;8251;53.568;10.018;2022-11-04T04:25:03;14.50;90.20
16287;DHT22;8251;53.568;10.018;2022-11-04T04:27:53;14.50;90.30
16287;DHT22;8251;53.568;10.018;2022-11-04T04:30:26;14.50;90.20
16287;DHT22;8251;53.568;10.018;2022-11-04T04:32:57;14.50;90.10
16287;DHT22;8251;53.568;10.018;2022-11-04T04:35:32;14.50;90.10
16287;DHT22;8251;53.568;10.018;2022-11-04T04:38:19;14.50;90.10
16287;DHT22;8251;53.568;10.018;2022-11-04T04:41:13;14.50;90.00
16287;DHT22;8251;53.568;10.018;2022-11-04T04:44:01;14.60;90.00
16287;DHT22;8251;53.568;10.018;2022-11-04T04:46:48;14.60;90.00
16287;DHT22;8251;53.568;10.018;2022-11-04T04:49:18;14.60;89.40
16287;DHT22;8251;53.568;10.018;2022-11-04T04:51:49;14.60;88.60
16287;DHT22;8251;53.568;10.018;2022-11-04T04:54:18;14.70;88.00
16287;DHT22;8251;53.568;10.018;2022-11-04T04:56:55;14.70;87.40
16287;DHT22;8251;53.568;10.018;2022-11-04T04:59:23;14.70;87.10
16287;DHT22;8251;53.568;10.018;2022-11-04T05:01:52;14.70;86.60
16287;DHT22;8251;53.568;10.018;2022-11-04T05:04:22;14.70;85.70
16287;DHT22;8251;53.568;10.018;2022-11-04T05:06:53;14.70;85.70
16287;DHT22;8251;53.568;10.018;2022-11-04T05:09:24;14.70;85.40
16287;DHT22;8251;53.568;10.018;2022-11-04T05:11:51;14.70;85.30
16287;DHT22;8251;53.568;10.018;2022-11-04T05:14:21;14.70;84.70
16287;DHT22;8251;53.568;10.018;2022-11-04T05:16:54;14.80;84.30
16287;DHT22;8251;53.568;10.018;2022-11-04T05:19:24;14.70;84.20
16287;DHT22;8251;53.568;10.018;2022-11-04T05:21:57;14.80;84.20
16287;DHT22;8251;53.568;10.018;2022-11-04T05:24:25;14.80;83.60
16287;DHT22;8251;53.568;10.018;2022-11-04T05:26:52;14.80;83.70
16287;DHT22;8251;53.568;10.018;2022-11-04T05:29:25;14.80;84.80
16287;DHT22;8251;53.568;10.018;2022-11-04T05:31:53;14.80;84.20
16287;DHT22;8251;53.568;10.018;2022-11-04T05:34:26;14.90;84.10
16287;DHT22;8251;53.568;10.018;2022-11-04T05:36:59;14.80;84.80
16287;DHT22;8251;53.568;10.018;2022-11-04T05:39:30;14.80;83.90
16287;DHT22;8251;53.568;10.018;2022-11-04T05:41:59;14.80;83.80
16287;DHT22;8251;53.568;10.018;2022-11-04T05:44:26;14.80;83.80
16287;DHT22;8251;53.568;10.018;2022-11-04T05:47:06;14.80;83.70
16287;DHT22;8251;53.568;10.018;2022-11-04T05:49:35;14.90;83.50
16287;DHT22;8251;53.568;10.018;2022-11-04T05:52:04;14.80;83.70
16287;DHT22;8251;53.568;10.018;2022-11-04T05:54:35;14.80;83.70
16287;DHT22;8251;53.568;10.018;2022-11-04T05:57:09;14.80;83.70
16287;DHT22;8251;53.568;10.018;2022-11-04T05:59:38;14.90;83.70
16287;DHT22;8251;53.568;10.018;2022-11-04T06:02:06;14.80;83.40
16287;DHT22;8251;53.568;10.018;2022-11-04T06:04:46;14.80;83.40
16287;DHT22;8251;53.568;10.018;2022-11-04T06:07:16;14.70;83.70
16287;DHT22;8251;53.568;10.018;2022-11-04T06:09:43;14.80;83.90
16287;DHT22;8251;53.568;10.018;2022-11-04T06:12:18;14.80;83.90
16287;DHT22;8251;53.568;10.018;2022-11-04T06:14:50;14.80;83.60
16287;DHT22;8251;53.568;10.018;2022-11-04T06:17:20;14.80;83.70
16287;DHT22;8251;53.568;10.018;2022-11-04T06:19:48;14.80;83.80
16287;DHT22;8251;53.568;10.018;2022-11-04T06:22:19;14.80;83.70
16287;DHT22;8251;53.568;10.018;2022-11-04T06:24:50;14.90;83.80
16287;DHT22;8251;53.568;10.018;2022-11-04T06:27:17;14.80;83.50
16287;DHT22;8251;53.568;10.018;2022-11-04T06:29:48;14.90;83.30
16287;DHT22;8251;53.568;10.018;2022-11-04T06:32:24;14.80;83.30
16287;DHT22;8251;53.568;10.018;2022-11-04T06:34:52;14.80;83.50
16287;DHT22;8251;53.568;10.018;2022-11-04T06:37:24;14.80;83.30
16287;DHT22;8251;53.568;10.018;2022-11-04T06:39:55;14.80;83.50
16287;DHT22;8251;53.568;10.018;2022-11-04T06:42:23;14.80;83.60
16287;DHT22;8251;53.568;10.018;2022-11-04T06:44:55;14.90;83.50
16287;DHT22;8251;53.568;10.018;2022-11-04T06:47:23;14.80;83.50
16287;DHT22;8251;53.568;10.018;2022-11-04T06:49:52;14.80;83.50
16287;DHT22;8251;53.568;10.018;2022-11-04T06:52:21;14.80;83.50
16287;DHT22;8251;53.568;10.018;2022-11-04T06:54:48;14.80;83.30
16287;DHT22;8251;53.568;10.018;2022-11-04T06:57:18;14.80;83.40
16287;DHT22;8251;53.568;10.018;2022-11-04T06:59:46;14.80;83.50
16287;DHT22;8251;53.568;10.018;2022-11-04T07:02:17;14.80;83.30
16287;DHT22;8251;53.568;10.018;2022-11-04T07:04:44;14.80;83.50
16287;DHT22;8251;53.568;10.018;2022-11-04T07:07:12;14.80;83.40
16287;DHT22;8251;53.568;10.018;2022-11-04T07:09:41;14.80;83.30
16287;DHT22;8251;53.568;10.018;2022-11-04T07:12:09;14.80;83.50
16287;DHT22;8251;53.568;10.018;2022-11-04T07:14:40;14.80;83.10
16287;DHT22;8251;53.568;10.018;2022-11-04T07:17:07;14.80;82.90
16287;DHT22;8251;53.568;10.018;2022-11-04T07:19:35;14.80;83.40
16287;DHT22;8251;53.568;10.018;2022-11-04T07:22:03;14.80;83.30
16287;DHT22;8251;53.568;10.018;2022-11-04T07:24:30;14.80;83.00
16287;DHT22;8251;53.568;10.018;2022-11-04T07:27:02;14.80;83.20
16287;DHT22;8251;53.568;10.018;2022-11-04T07:29:30;14.80;83.10
16287;DHT22;8251;53.568;10.018;2022-11-04T07:32:01;14.80;83.20
16287;DHT22;8251;53.568;10.018;2022-11-04T07:34:29;14.90;83.30
16287;DHT22;8251;53.568;10.018;2022-11-04T07:36:59;14.80;83.20
16287;DHT22;8251;53.568;10.018;2022-11-04T07:39:27;14.80;83.10
16287;DHT22;8251;53.568;10.018;2022-11-04T07:41:54;14.90;83.00
16287;DHT22;8251;53.568;10.018;2022-11-04T07:44:26;14.90;82.90
16287;DHT22;8251;53.568;10.018;2022-11-04T07:46:57;14.80;83.00
16287;DHT22;8251;53.568;10.018;2022-11-04T07:49:25;14.90;83.10
16287;DHT22;8251;53.568;10.018;2022-11-04T07:51:55;14.80;83.20
16287;DHT22;8251;53.568;10.018;2022-11-04T07:54:24;14.80;83.10
16287;DHT22;8251;53.568;10.018;2022-11-04T07:56:51;14.90;83.20
16287;DHT22;8251;53.568;10.018;2022-11-04T07:59:19;14.90;83.10
16287;DHT22;8251;53.568;10.018;2022-11-04T08:01:51;14.90;83.10
16287;DHT22;8251;53.568;10.018;2022-11-04T08:04:20;14.90;83.00
16287;DHT22;8251;53.568;10.018;2022-11-04T08:06:48;14.90;82.70
16287;DHT22;8251;53.568;10.018;2022-11-04T08:09:16;14.90;83.00
16287;DHT22;8251;53.568;10.018;2022-11-04T08:11:44;14.90;83.10
16287;DHT22;8251;53.568;10.018;2022-11-04T08:14:13;14.90;83.70
16287;DHT22;8251;53.568;10.018;2022-11-04T08:16:58;14.90;82.70
16287;DHT22;8251;53.568;10.018;2022-11-04T08:19:32;15.00;82.70
16287;DHT22;8251;53.568;10.018;2022-11-04T08:21:59;14.90;82.80
16287;DHT22;8251;53.568;10.018;2022-11-04T08:24:29;14.90;82.80
16287;DHT22;8251;53.568;10.018;2022-11-04T08:27:05;15.00;82.70
16287;DHT22;8251;53.568;10.018;2022-11-04T08:29:40;15.00;82.50
16287;DHT22;8251;53.568;10.018;2022-11-04T08:32:20;15.00;82.30
16287;DHT22;8251;53.568;10.018;2022-11-04T08:34:49;14.90;82.30
16287;DHT22;8251;53.568;10.018;2022-11-04T08:37:22;14.90;82.20
16287;DHT22;8251;53.568;10.018;2022-11-04T08:39:50;14.90;82.40
16287;DHT22;8251;53.568;10.018;2022-11-04T08:42:18;14.90;82.60
16287;DHT22;8251;53.568;10.018;2022-11-04T08:44:49;15.00;82.50
16287;DHT22;8251;53.568;10.018;2022-11-04T08:47:20;15.00;82.30
16287;DHT22;8251;53.568;10.018;2022-11-04T08:49:54;15.00;82.30
16287;DHT22;8251;53.568;10.018;2022-11-04T08:52:22;15.00;82.00
16287;DHT22;8251;53.568;10.018;2022-11-04T08:54:49;15.10;82.00
16287;DHT22;8251;53.568;10.018;2022-11-04T08:57:18;15.10;81.90
16287;DHT22;8251;53.568;10.018;2022-11-04T08:59:45;15.20;81.90
16287;DHT22;8251;53.568;10.018;2022-11-04T09:02:14;15.20;81.40
16287;DHT22;8251;53.568;10.018;2022-11-04T09:04:43;15.20;81.10
16287;DHT22;8251;53.568;10.018;2022-11-04T09:07:12;15.30;81.30
16287;DHT22;8251;53.568;10.018;2022-11-04T09:09:39;15.30;81.10
16287;DHT22;8251;53.568;10.018;2022-11-04T09:12:08;15.30;80.90
16287;DHT22;8251;53.568;10.018;2022-11-04T09:14:35;15.30;80.80
16287;DHT22;8251;53.568;10.018;2022-11-04T09:17:02;15.20;80.70
16287;DHT22;8251;53.568;10.018;2022-11-04T09:19:29;15.20;80.50
16287;DHT22;8251;53.568;10.018;2022-11-04T09:21:58;15.20;80.40
16287;DHT22;8251;53.568;10.018;2022-11-04T09:24:25;15.20;80.60
16287;DHT22;8251;53.568;10.018;2022-11-04T09:26:52;15.20;80.70
16287;DHT22;8251;53.568;10.018;2022-11-04T09:29:19;15.30;80.80
16287;DHT22;8251;53.568;10.018;2022-11-04T09:31:47;15.30;80.50
16287;DHT22;8251;53.568;10.018;2022-11-04T09:34:15;15.30;80.50
16287;DHT22;8251;53.568;10.018;2022-11-04T09:36:43;15.30;80.10
16287;DHT22;8251;53.568;10.018;2022-11-04T09:39:12;15.30;80.10
16287;DHT22;8251;53.568;10.018;2022-11-04T09:41:58;15.30;80.00
16287;DHT22;8251;53.568;10.018;2022-11-04T09:44:31;15.30;80.10
16287;DHT22;8251;53.568;10.018;2022-11-04T09:47:01;15.30;80.00
16287;DHT22;8251;53.568;10.018;2022-11-04T09:49:37;15.30;80.20
16287;DHT22;8251;53.568;10.018;2022-11-04T09:52:24;15.30;80.20
16287;DHT22;8251;53.568;10.018;2022-11-04T09:54:58;15.30;80.30
16287;DHT22;8251;53.568;10.018;2022-11-04T09:57:29;15.30;80.10
16287;DHT22;8251;53.568;10.018;2022-11-04T09:59:57;15.50;79.80
16287;DHT22;8251;53.568;10.018;2022-11-04T10:02:45;15.40;80.70
16287;DHT22;8251;53.568;10.018;2022-11-04T10:05:32;15.50;80.10
16287;DHT22;8251;53.568;10.018;2022-11-04T10:08:22;15.50;79.40
16287;DHT22;8251;53.568;10.018;2022-11-04T10:10:58;15.50;79.30
16287;DHT22;8251;53.568;10.018;2022-11-04T10:13:40;15.60;79.40
16287;DHT22;8251;53.568;10.018;2022-11-04T10:16:25;15.60;79.40
16287;DHT22;8251;53.568;10.018;2022-11-04T10:19:10;15.50;79.20
16287;DHT22;8251;53.568;10.018;2022-11-04T10:21:47;15.50;79.40
16287;DHT22;8251;53.568;10.018;2022-11-04T10:24:23;15.50;79.40
16287;DHT22;8251;53.568;10.018;2022-11-04T10:26:54;15.50;79.50
16287;DHT22;8251;53.568;10.018;2022-11-04T10:29:27;15.50;79.20
16287;DHT22;8251;53.568;10.018;2022-11-04T10:31:57;15.50;79.40
16287;DHT22;8251;53.568;10.018;2022-11-04T10:34:33;15.60;79.50
16287;DHT22;8251;53.568;10.018;2022-11-04T10:37:02;15.60;79.30
16287;DHT22;8251;53.568;10.018;2022-11-04T10:39:34;15.60;79.20
16287;DHT22;8251;53.568;10.018;2022-11-04T10:42:05;15.60;79.20
16287;DHT22;8251;53.568;10.018;2022-11-04T10:44:33;15.60;79.30
16287;DHT22;8251;53.568;10.018;2022-11-04T10:47:07;15.60;79.40
16287;DHT22;8251;53.568;10.018;2022-11-04T10:52:41;15.60;80.00
16287;DHT22;8251;53.568;10.018;2022-11-04T10:55:19;15.60;79.00
16287;DHT22;8251;53.568;10.018;2022-11-04T10:58:09;15.70;79.20
16287;DHT22;8251;53.568;10.018;2022-11-04T11:00:41;15.70;79.00
16287;DHT22;8251;53.568;10.018;2022-11-04T11:03:29;15.70;79.80
16287;DHT22;8251;53.568;10.018;2022-11-04T11:06:22;15.70;78.80
16287;DHT22;8251;53.568;10.018;2022-11-04T11:08:50;15.70;78.80
16287;DHT22;8251;53.568;10.018;2022-11-04T11:11:36;15.60;78.60
16287;DHT22;8251;53.568;10.018;2022-11-04T11:14:15;15.60;78.50
16287;DHT22;8251;53.568;10.018;2022-11-04T11:16:45;15.50;78.60
16287;DHT22;8251;53.568;10.018;2022-11-04T11:19:17;15.60;78.60
16287;DHT22;8251;53.568;10.018;2022-11-04T11:21:46;15.60;78.80
16287;DHT22;8251;53.568;10.018;2022-11-04T11:24:18;15.60;78.80
16287;DHT22;8251;53.568;10.018;2022-11-04T11:26:46;15.60;79.20
16287;DHT22;8251;53.568;10.018;2022-11-04T11:29:28;15.60;78.80
16287;DHT22;8251;53.568;10.018;2022-11-04T11:31:57;15.60;78.90
16287;DHT22;8251;53.568;10.018;2022-11-04T11:34:29;15.60;79.20
16287;DHT22;8251;53.568;10.018;2022-11-04T11:36:58;15.60;79.20
16287;DHT22;8251;53.568;10.018;2022-11-04T11:39:30;15.60;79.20
16287;DHT22;8251;53.568;10.018;2022-11-04T11:42:00;15.70;79.60
16287;DHT22;8251;53.568;10.018;2022-11-04T11:44:33;15.90;79.50
16287;DHT22;8251;53.568;10.018;2022-11-04T11:47:04;16.00;78.90
16287;DHT22;8251;53.568;10.018;2022-11-04T11:49:35;16.00;78.70
16287;DHT22;8251;53.568;10.018;2022-11-04T11:52:32;16.00;78.30
16287;DHT22;8251;53.568;10.018;2022-11-04T11:55:03;15.90;78.50
16287;DHT22;8251;53.568;10.018;2022-11-04T11:57:41;16.00;77.60
16287;DHT22;8251;53.568;10.018;2022-11-04T12:00:14;16.00;77.50
16287;DHT22;8251;53.568;10.018;2022-11-04T12:02:49;15.90;77.50
16287;DHT22;8251;53.568;10.018;2022-11-04T12:05:22;16.00;77.90
16287;DHT22;8251;53.568;10.018;2022-11-04T12:07:58;16.00;77.70
16287;DHT22;8251;53.568;10.018;2022-11-04T12:10:32;16.00;77.10
16287;DHT22;8251;53.568;10.018;2022-11-04T12:13:06;16.00;77.00
16287;DHT22;8251;53.568;10.018;2022-11-04T12:15:59;16.10;77.30
16287;DHT22;8251;53.568;10.018;2022-11-04T12:18:41;16.10;77.00
16287;DHT22;8251;53.568;10.018;2022-11-04T12:21:12;16.20;76.90
16287;DHT22;8251;53.568;10.018;2022-11-04T12:23:49;16.20;76.90
16287;DHT22;8251;53.568;10.018;2022-11-04T12:26:29;16.20;77.10
16287;DHT22;8251;53.568;10.018;2022-11-04T12:29:10;16.20;76.80
16287;DHT22;8251;53.568;10.018;2022-11-04T12:31:49;16.10;77.20
16287;DHT22;8251;53.568;10.018;2022-11-04T12:34:34;16.00;77.10
16287;DHT22;8251;53.568;10.018;2022-11-04T12:37:14;16.00;77.00
16287;DHT22;8251;53.568;10.018;2022-11-04T12:40:05;16.00;78.30
16287;DHT22;8251;53.568;10.018;2022-11-04T12:42:45;16.00;77.40
16287;DHT22;8251;53.568;10.018;2022-11-04T12:45:23;16.00;77.30
16287;DHT22;8251;53.568;10.018;2022-11-04T12:47:54;16.00;77.20
16287;DHT22;8251;53.568;10.018;2022-11-04T12:50:41;16.00;77.00
16287;DHT22;8251;53.568;10.018;2022-11-04T12:53:35;16.00;76.60
16287;DHT22;8251;53.568;10.018;2022-11-04T12:56:09;16.00;75.90
16287;DHT22;8251;53.568;10.018;2022-11-04T12:59:14;16.00;75.60
16287;DHT22;8251;53.568;10.018;2022-11-04T13:01:50;16.00;75.30
16287;DHT22;8251;53.568;10.018;2022-11-04T13:04:28;16.00;76.00
16287;DHT22;8251;53.568;10.018;2022-11-04T13:07:06;16.10;75.70
16287;DHT22;8251;53.568;10.018;2022-11-04T13:09:39;16.20;76.00
16287;DHT22;8251;53.568;10.018;2022-11-04T13:12:11;16.20;75.90
16287;DHT22;8251;53.568;10.018;2022-11-04T13:14:43;16.20;76.00
16287;DHT22;8251;53.568;10.018;2022-11-04T13:17:16;16.20;76.00
16287;DHT22;8251;53.568;10.018;2022-11-04T13:19:48;16.20;75.30
16287;DHT22;8251;53.568;10.018;2022-11-04T13:22:21;16.00;75.30
16287;DHT22;8251;53.568;10.018;2022-11-04T13:24:53;16.20;75.80
16287;DHT22;8251;53.568;10.018;2022-11-04T13:27:26;16.30;76.00
16287;DHT22;8251;53.568;10.018;2022-11-04T13:30:18;16.20;75.90
16287;DHT22;8251;53.568;10.018;2022-11-04T13:32:58;16.30;75.60
16287;DHT22;8251;53.568;10.018;2022-11-04T13:35:40;16.20;75.20
16287;DHT22;8251;53.568;10.018;2022-11-04T13:38:15;16.30;75.10
16287;DHT22;8251;53.568;10.018;2022-11-04T13:40:54;16.30;75.20
16287;DHT22;8251;53.568;10.018;2022-11-04T13:43:26;16.30;75.20
16287;DHT22;8251;53.568;10.018;2022-11-04T13:46:18;16.30;75.40
16287;DHT22;8251;53.568;10.018;2022-11-04T13:48:59;16.30;76.00
16287;DHT22;8251;53.568;10.018;2022-11-04T13:51:40;16.30;75.50
16287;DHT22;8251;53.568;10.018;2022-11-04T13:54:24;16.30;75.90
16287;DHT22;8251;53.568;10.018;2022-11-04T13:57:07;16.30;76.70
16287;DHT22;8251;53.568;10.018;2022-11-04T13:59:35;16.30;76.60
16287;DHT22;8251;53.568;10.018;2022-11-04T14:02:31;16.30;76.40
16287;DHT22;8251;53.568;10.018;2022-11-04T14:08:23;16.20;75.00
16287;DHT22;8251;53.568;10.018;2022-11-04T14:11:06;16.20;75.40
16287;DHT22;8251;53.568;10.018;2022-11-04T14:14:12;16.20;75.30
16287;DHT22;8251;53.568;10.018;2022-11-04T14:16:43;16.20;75.60
16287;DHT22;8251;53.568;10.018;2022-11-04T14:22:20;16.20;75.80
16287;DHT22;8251;53.568;10.018;2022-11-04T14:25:22;16.20;76.20
16287;DHT22;8251;53.568;10.018;2022-11-04T14:27:52;16.20;76.00
16287;DHT22;8251;53.568;10.018;2022-11-04T14:30:32;16.20;75.80
16287;DHT22;8251;53.568;10.018;2022-11-04T14:33:02;16.10;75.40
16287;DHT22;8251;53.568;10.018;2022-11-04T14:35:30;16.10;75.20
16287;DHT22;8251;53.568;10.018;2022-11-04T14:38:02;16.10;75.30
16287;DHT22;8251;53.568;10.018;2022-11-04T14:40:47;16.10;75.80
16287;DHT22;8251;53.568;10.018;2022-11-04T14:43:28;16.00;75.20
16287;DHT22;8251;53.568;10.018;2022-11-04T14:46:00;16.00;75.20
16287;DHT22;8251;53.568;10.018;2022-11-04T14:48:29;16.00;75.20
16287;DHT22;8251;53.568;10.018;2022-11-04T14:50:57;16.00;75.20
16287;DHT22;8251;53.568;10.018;2022-11-04T14:53:27;16.00;75.40
16287;DHT22;8251;53.568;10.018;2022-11-04T14:56:05;16.00;75.60
16287;DHT22;8251;53.568;10.018;2022-11-04T14:58:35;16.10;75.80
16287;DHT22;8251;53.568;10.018;2022-11-04T15:01:03;16.10;76.10
16287;DHT22;8251;53.568;10.018;2022-11-04T15:03:37;16.00;76.20
16287;DHT22;8251;53.568;10.018;2022-11-04T15:06:08;16.00;75.80
16287;DHT22;8251;53.568;10.018;2022-11-04T15:08:43;15.90;75.90
16287;DHT22;8251;53.568;10.018;2022-11-04T15:11:17;15.90;76.10
16287;DHT22;8251;53.568;10.018;2022-11-04T15:14:13;15.90;76.20
16287;DHT22;8251;53.568;10.018;2022-11-04T15:16:41;15.90;76.40
16287;DHT22;8251;53.568;10.018;2022-11-04T15:19:20;15.90;76.50
16287;DHT22;8251;53.568;10.018;2022-11-04T15:21:50;15.90;76.40
16287;DHT22;8251;53.568;10.018;2022-11-04T15:24:20;15.90;76.40
16287;DHT22;8251;53.568;10.018;2022-11-04T15:26:53;15.90;76.70
16287;DHT22;8251;53.568;10.018;2022-11-04T15:29:23;15.90;76.80
16287;DHT22;8251;53.568;10.018;2022-11-04T15:31:52;15.90;76.70
16287;DHT22;8251;53.568;10.018;2022-11-04T15:34:21;15.80;77.00
16287;DHT22;8251;53.568;10.018;2022-11-04T15:36:49;15.80;76.90
16287;DHT22;8251;53.568;10.018;2022-11-04T15:39:19;15.80;76.60
16287;DHT22;8251;53.568;10.018;2022-11-04T15:41:47;15.80;76.30
16287;DHT22;8251;53.568;10.018;2022-11-04T15:44:37;15.70;76.10
16287;DHT22;8251;53.568;10.018;2022-11-04T15:47:21;15.70;76.50
16287;DHT22;8251;53.568;10.018;2022-11-04T15:49:50;15.70;76.40
16287;DHT22;8251;53.568;10.018;2022-11-04T15:52:24;15.70;76.80
16287;DHT22;8251;53.568;10.018;2022-11-04T15:54:57;15.70;76.80
16287;DHT22;8251;53.568;10.018;2022-11-04T15:57:48;15.70;76.90
16287;DHT22;8251;53.568;10.018;2022-11-04T16:00:27;15.70;77.10
16287;DHT22;8251;53.568;10.018;2022-11-04T16:03:01;15.70;77.20
16287;DHT22;8251;53.568;10.018;2022-11-04T16:05:33;15.60;77.20
16287;DHT22;8251;53.568;10.018;2022-11-04T16:08:20;15.60;77.50
16287;DHT22;8251;53.568;10.018;2022-11-04T16:11:08;15.60;77.80
16287;DHT22;8251;53.568;10.018;2022-11-04T16:13:36;15.60;77.80
16287;DHT22;8251;53.568;10.018;2022-11-04T16:16:24;15.60;78.20
16287;DHT22;8251;53.568;10.018;2022-11-04T16:18:54;15.50;78.10
16287;DHT22;8251;53.568;10.018;2022-11-04T16:21:26;15.50;78.40
16287;DHT22;8251;53.568;10.018;2022-11-04T16:24:00;15.50;78.60
16287;DHT22;8251;53.568;10.018;2022-11-04T16:26:30;15.50;78.50
16287;DHT22;8251;53.568;10.018;2022-11-04T16:29:04;15.50;78.40